sensor_id;sensor_type;location;lat;lon;timestamp;P1;durP1;ratioP1;P2;durP2;ratioP2
67930;SDS011;63902;52.000;5.954;2024-02-21T00:00:31;16.48;;;8.38;;
67930;SDS011;63902;52.000;5.954;2024-02-21T00:01:32;22.10;;;8.23;;
67930;SDS011;63902;52.000;5.954;2024-02-21T00:02:32;21.38;;;8.45;;
67930;SDS011;63902;52.000;5.954;2024-02-21T00:03:33;17.27;;;8.05;;
67930;SDS011;63902;52.000;5.954;2024-02-21T00:04:33;19.35;;;7.82;;
67930;SDS011;63902;52.000;5.954;2024-02-21T00:05:34;19.65;;;8.27;;
67930;SDS011;63902;52.000;5.954;2024-02-21T00:06:34;18.90;;;8.07;;
67930;SDS011;63902;52.000;5.954;2024-02-21T00:07:35;23.50;;;8.43;;
67930;SDS011;63902;52.000;5.954;2024-02-21T00:08:35;17.90;;;7.47;;
67930;SDS011;63902;52.000;5.954;2024-02-21T00:09:35;19.23;;;7.88;;
67930;SDS011;63902;52.000;5.954;2024-02-21T00:10:36;16.48;;;8.52;;
67930;SDS011;63902;52.000;5.954;2024-02-21T00:11:36;18.80;;;8.65;;
67930;SDS011;63902;52.000;5.954;2024-02-21T00:12:37;19.10;;;7.88;;
67930;SDS011;63902;52.000;5.954;2024-02-21T00:13:37;19.50;;;7.85;;
67930;SDS011;63902;52.000;5.954;2024-02-21T00:14:39;19.85;;;8.63;;
67930;SDS011;63902;52.000;5.954;2024-02-21T00:15:40;22.45;;;8.30;;
67930;SDS011;63902;52.000;5.954;2024-02-21T00:16:40;22.25;;;9.32;;
67930;SDS011;63902;52.000;5.954;2024-02-21T00:17:40;19.80;;;8.45;;
67930;SDS011;63902;52.000;5.954;2024-02-21T00:18:41;20.30;;;7.43;;
67930;SDS011;63902;52.000;5.954;2024-02-21T00:19:41;16.15;;;7.30;;
67930;SDS011;63902;52.000;5.954;2024-02-21T00:20:42;23.38;;;7.57;;
67930;SDS011;63902;52.000;5.954;2024-02-21T00:21:42;20.13;;;8.98;;
67930;SDS011;63902;52.000;5.954;2024-02-21T00:22:43;21.52;;;8.70;;
67930;SDS011;63902;52.000;5.954;2024-02-21T00:23:43;14.73;;;7.85;;
67930;SDS011;63902;52.000;5.954;2024-02-21T00:24:44;25.05;;;7.82;;
67930;SDS011;63902;52.000;5.954;2024-02-21T00:25:45;18.05;;;7.78;;
67930;SDS011;63902;52.000;5.954;2024-02-21T00:26:45;26.05;;;8.75;;
67930;SDS011;63902;52.000;5.954;2024-02-21T00:27:46;20.27;;;8.90;;
67930;SDS011;63902;52.000;5.954;2024-02-21T00:28:46;15.82;;;8.15;;
67930;SDS011;63902;52.000;5.954;2024-02-21T00:29:48;28.58;;;7.95;;
67930;SDS011;63902;52.000;5.954;2024-02-21T00:30:49;15.90;;;7.43;;
67930;SDS011;63902;52.000;5.954;2024-02-21T00:31:49;17.10;;;7.65;;
67930;SDS011;63902;52.000;5.954;2024-02-21T00:32:50;16.25;;;7.80;;
67930;SDS011;63902;52.000;5.954;2024-02-21T00:33:50;19.50;;;9.10;;
67930;SDS011;63902;52.000;5.954;2024-02-21T00:34:50;16.30;;;8.60;;
67930;SDS011;63902;52.000;5.954;2024-02-21T00:35:51;17.95;;;7.75;;
67930;SDS011;63902;52.000;5.954;2024-02-21T00:36:51;18.70;;;8.57;;
67930;SDS011;63902;52.000;5.954;2024-02-21T00:37:52;18.58;;;7.00;;
67930;SDS011;63902;52.000;5.954;2024-02-21T00:38:52;16.60;;;8.25;;
67930;SDS011;63902;52.000;5.954;2024-02-21T00:39:53;23.63;;;8.15;;
67930;SDS011;63902;52.000;5.954;2024-02-21T00:40:54;17.67;;;7.60;;
67930;SDS011;63902;52.000;5.954;2024-02-21T00:41:54;15.98;;;8.00;;
67930;SDS011;63902;52.000;5.954;2024-02-21T00:42:55;18.58;;;8.43;;
67930;SDS011;63902;52.000;5.954;2024-02-21T00:43:55;27.88;;;8.73;;
67930;SDS011;63902;52.000;5.954;2024-02-21T00:44:57;26.90;;;8.63;;
67930;SDS011;63902;52.000;5.954;2024-02-21T00:45:58;21.60;;;9.30;;
67930;SDS011;63902;52.000;5.954;2024-02-21T00:46:58;19.60;;;7.70;;
67930;SDS011;63902;52.000;5.954;2024-02-21T00:47:59;21.60;;;7.85;;
67930;SDS011;63902;52.000;5.954;2024-02-21T00:48:59;12.82;;;7.65;;
67930;SDS011;63902;52.000;5.954;2024-02-21T00:50:00;27.80;;;9.63;;
67930;SDS011;63902;52.000;5.954;2024-02-21T00:51:00;19.73;;;7.70;;
67930;SDS011;63902;52.000;5.954;2024-02-21T00:52:01;22.48;;;8.15;;
67930;SDS011;63902;52.000;5.954;2024-02-21T00:53:01;20.55;;;8.55;;
67930;SDS011;63902;52.000;5.954;2024-02-21T00:54:02;15.85;;;7.72;;
67930;SDS011;63902;52.000;5.954;2024-02-21T00:55:02;16.35;;;7.63;;
67930;SDS011;63902;52.000;5.954;2024-02-21T00:56:04;26.30;;;8.80;;
67930;SDS011;63902;52.000;5.954;2024-02-21T00:57:05;24.13;;;8.73;;
67930;SDS011;63902;52.000;5.954;2024-02-21T00:58:05;20.13;;;8.10;;
67930;SDS011;63902;52.000;5.954;2024-02-21T00:59:05;20.58;;;7.75;;
67930;SDS011;63902;52.000;5.954;2024-02-21T01:00:08;23.00;;;8.48;;
67930;SDS011;63902;52.000;5.954;2024-02-21T01:01:09;26.38;;;9.07;;
67930;SDS011;63902;52.000;5.954;2024-02-21T01:02:09;19.85;;;8.13;;
67930;SDS011;63902;52.000;5.954;2024-02-21T01:03:10;17.70;;;7.78;;
67930;SDS011;63902;52.000;5.954;2024-02-21T01:04:10;20.13;;;8.35;;
67930;SDS011;63902;52.000;5.954;2024-02-21T01:05:11;15.95;;;8.25;;
67930;SDS011;63902;52.000;5.954;2024-02-21T01:06:11;20.77;;;8.05;;
67930;SDS011;63902;52.000;5.954;2024-02-21T01:07:12;19.48;;;7.50;;
67930;SDS011;63902;52.000;5.954;2024-02-21T01:08:12;20.50;;;8.05;;
67930;SDS011;63902;52.000;5.954;2024-02-21T01:09:13;22.63;;;8.02;;
67930;SDS011;63902;52.000;5.954;2024-02-21T01:10:13;17.90;;;7.32;;
67930;SDS011;63902;52.000;5.954;2024-02-21T01:11:13;15.93;;;7.85;;
67930;SDS011;63902;52.000;5.954;2024-02-21T01:12:14;20.48;;;8.43;;
67930;SDS011;63902;52.000;5.954;2024-02-21T01:13:15;14.75;;;7.53;;
67930;SDS011;63902;52.000;5.954;2024-02-21T01:14:15;21.92;;;8.07;;
67930;SDS011;63902;52.000;5.954;2024-02-21T01:15:17;19.52;;;9.15;;
67930;SDS011;63902;52.000;5.954;2024-02-21T01:16:17;25.10;;;8.50;;
67930;SDS011;63902;52.000;5.954;2024-02-21T01:17:18;14.30;;;7.65;;
67930;SDS011;63902;52.000;5.954;2024-02-21T01:18:18;18.23;;;7.95;;
67930;SDS011;63902;52.000;5.954;2024-02-21T01:19:19;14.13;;;7.60;;
67930;SDS011;63902;52.000;5.954;2024-02-21T01:20:20;16.98;;;7.10;;
67930;SDS011;63902;52.000;5.954;2024-02-21T01:21:20;20.92;;;7.25;;
67930;SDS011;63902;52.000;5.954;2024-02-21T01:22:21;16.88;;;8.02;;
67930;SDS011;63902;52.000;5.954;2024-02-21T01:23:21;18.02;;;7.30;;
67930;SDS011;63902;52.000;5.954;2024-02-21T01:24:22;15.35;;;7.15;;
67930;SDS011;63902;52.000;5.954;2024-02-21T01:25:22;18.35;;;7.20;;
67930;SDS011;63902;52.000;5.954;2024-02-21T01:26:23;17.83;;;7.40;;
67930;SDS011;63902;52.000;5.954;2024-02-21T01:27:24;16.58;;;7.70;;
67930;SDS011;63902;52.000;5.954;2024-02-21T01:28:24;14.07;;;7.22;;
67930;SDS011;63902;52.000;5.954;2024-02-21T01:29:25;18.63;;;8.05;;
67930;SDS011;63902;52.000;5.954;2024-02-21T01:30:26;14.10;;;7.18;;
67930;SDS011;63902;52.000;5.954;2024-02-21T01:31:27;16.38;;;7.30;;
67930;SDS011;63902;52.000;5.954;2024-02-21T01:32:27;16.30;;;7.53;;
67930;SDS011;63902;52.000;5.954;2024-02-21T01:33:28;20.35;;;7.78;;
67930;SDS011;63902;52.000;5.954;2024-02-21T01:34:28;13.75;;;7.57;;
67930;SDS011;63902;52.000;5.954;2024-02-21T01:35:29;17.40;;;7.68;;
67930;SDS011;63902;52.000;5.954;2024-02-21T01:36:29;16.65;;;7.60;;
67930;SDS011;63902;52.000;5.954;2024-02-21T01:37:30;16.17;;;7.25;;
67930;SDS011;63902;52.000;5.954;2024-02-21T01:38:30;11.82;;;6.75;;
67930;SDS011;63902;52.000;5.954;2024-02-21T01:39:31;19.08;;;7.82;;
67930;SDS011;63902;52.000;5.954;2024-02-21T01:40:31;14.95;;;7.85;;
67930;SDS011;63902;52.000;5.954;2024-02-21T01:41:31;17.90;;;7.18;;
67930;SDS011;63902;52.000;5.954;2024-02-21T01:42:32;12.93;;;7.18;;
67930;SDS011;63902;52.000;5.954;2024-02-21T01:43:32;16.23;;;7.72;;
67930;SDS011;63902;52.000;5.954;2024-02-21T01:44:33;18.27;;;7.45;;
67930;SDS011;63902;52.000;5.954;2024-02-21T01:45:35;17.75;;;7.45;;
67930;SDS011;63902;52.000;5.954;2024-02-21T01:46:35;16.13;;;7.43;;
67930;SDS011;63902;52.000;5.954;2024-02-21T01:47:36;14.25;;;7.07;;
67930;SDS011;63902;52.000;5.954;2024-02-21T01:48:37;20.13;;;7.07;;
67930;SDS011;63902;52.000;5.954;2024-02-21T01:49:38;20.80;;;8.02;;
67930;SDS011;63902;52.000;5.954;2024-02-21T01:50:38;18.17;;;7.47;;
67930;SDS011;63902;52.000;5.954;2024-02-21T01:51:39;20.40;;;7.97;;
67930;SDS011;63902;52.000;5.954;2024-02-21T01:52:40;16.42;;;7.35;;
67930;SDS011;63902;52.000;5.954;2024-02-21T01:53:43;15.70;;;7.20;;
67930;SDS011;63902;52.000;5.954;2024-02-21T01:54:44;13.35;;;5.93;;
67930;SDS011;63902;52.000;5.954;2024-02-21T01:55:47;13.60;;;7.32;;
67930;SDS011;63902;52.000;5.954;2024-02-21T01:56:47;16.77;;;7.28;;
67930;SDS011;63902;52.000;5.954;2024-02-21T01:57:48;15.25;;;7.90;;
67930;SDS011;63902;52.000;5.954;2024-02-21T01:58:49;16.27;;;6.78;;
67930;SDS011;63902;52.000;5.954;2024-02-21T01:59:50;24.48;;;7.72;;
67930;SDS011;63902;52.000;5.954;2024-02-21T02:00:53;13.57;;;7.45;;
67930;SDS011;63902;52.000;5.954;2024-02-21T02:01:56;16.75;;;6.90;;
67930;SDS011;63902;52.000;5.954;2024-02-21T02:02:57;13.85;;;7.00;;
67930;SDS011;63902;52.000;5.954;2024-02-21T02:03:58;20.45;;;7.72;;
67930;SDS011;63902;52.000;5.954;2024-02-21T02:04:59;13.05;;;7.13;;
67930;SDS011;63902;52.000;5.954;2024-02-21T02:06:01;16.38;;;7.72;;
67930;SDS011;63902;52.000;5.954;2024-02-21T02:07:02;14.43;;;6.90;;
67930;SDS011;63902;52.000;5.954;2024-02-21T02:08:06;16.63;;;7.22;;
67930;SDS011;63902;52.000;5.954;2024-02-21T02:09:07;20.65;;;7.80;;
67930;SDS011;63902;52.000;5.954;2024-02-21T02:10:07;15.88;;;7.70;;
67930;SDS011;63902;52.000;5.954;2024-02-21T02:11:08;18.33;;;7.32;;
67930;SDS011;63902;52.000;5.954;2024-02-21T02:12:09;13.82;;;6.75;;
67930;SDS011;63902;52.000;5.954;2024-02-21T02:13:10;19.52;;;8.25;;
67930;SDS011;63902;52.000;5.954;2024-02-21T02:14:10;18.40;;;7.78;;
67930;SDS011;63902;52.000;5.954;2024-02-21T02:15:11;12.88;;;6.57;;
67930;SDS011;63902;52.000;5.954;2024-02-21T02:16:13;19.15;;;7.15;;
67930;SDS011;63902;52.000;5.954;2024-02-21T02:17:13;22.75;;;7.85;;
67930;SDS011;63902;52.000;5.954;2024-02-21T02:18:14;14.75;;;7.20;;
67930;SDS011;63902;52.000;5.954;2024-02-21T02:19:15;18.08;;;7.55;;
67930;SDS011;63902;52.000;5.954;2024-02-21T02:20:16;16.40;;;7.07;;
67930;SDS011;63902;52.000;5.954;2024-02-21T02:21:22;19.00;;;6.55;;
67930;SDS011;63902;52.000;5.954;2024-02-21T02:22:28;17.92;;;6.43;;
67930;SDS011;63902;52.000;5.954;2024-02-21T02:23:31;13.32;;;7.05;;
67930;SDS011;63902;52.000;5.954;2024-02-21T02:24:31;17.70;;;8.25;;
67930;SDS011;63902;52.000;5.954;2024-02-21T02:25:32;16.80;;;6.85;;
67930;SDS011;63902;52.000;5.954;2024-02-21T02:26:32;22.10;;;7.43;;
67930;SDS011;63902;52.000;5.954;2024-02-21T02:27:33;17.60;;;7.25;;
67930;SDS011;63902;52.000;5.954;2024-02-21T02:28:41;17.35;;;7.32;;
67930;SDS011;63902;52.000;5.954;2024-02-21T02:29:42;17.75;;;6.88;;
67930;SDS011;63902;52.000;5.954;2024-02-21T02:30:42;23.45;;;7.75;;
67930;SDS011;63902;52.000;5.954;2024-02-21T02:31:43;17.58;;;7.32;;
67930;SDS011;63902;52.000;5.954;2024-02-21T02:32:44;21.33;;;7.32;;
67930;SDS011;63902;52.000;5.954;2024-02-21T02:33:45;17.85;;;6.38;;
67930;SDS011;63902;52.000;5.954;2024-02-21T02:34:45;16.42;;;7.28;;
67930;SDS011;63902;52.000;5.954;2024-02-21T02:35:46;14.40;;;7.18;;
67930;SDS011;63902;52.000;5.954;2024-02-21T02:36:46;15.85;;;6.85;;
67930;SDS011;63902;52.000;5.954;2024-02-21T02:37:49;22.13;;;7.85;;
67930;SDS011;63902;52.000;5.954;2024-02-21T02:38:51;12.15;;;6.43;;
67930;SDS011;63902;52.000;5.954;2024-02-21T02:39:52;22.30;;;7.53;;
67930;SDS011;63902;52.000;5.954;2024-02-21T02:40:52;21.13;;;7.57;;
67930;SDS011;63902;52.000;5.954;2024-02-21T02:41:53;18.85;;;7.38;;
67930;SDS011;63902;52.000;5.954;2024-02-21T02:42:53;16.08;;;6.60;;
67930;SDS011;63902;52.000;5.954;2024-02-21T02:43:54;18.73;;;7.75;;
67930;SDS011;63902;52.000;5.954;2024-02-21T02:44:54;16.80;;;6.28;;
67930;SDS011;63902;52.000;5.954;2024-02-21T02:45:55;20.00;;;7.65;;
67930;SDS011;63902;52.000;5.954;2024-02-21T02:46:55;19.23;;;6.88;;
67930;SDS011;63902;52.000;5.954;2024-02-21T02:47:56;15.27;;;7.20;;
67930;SDS011;63902;52.000;5.954;2024-02-21T02:48:57;21.80;;;7.72;;
67930;SDS011;63902;52.000;5.954;2024-02-21T02:49:57;12.35;;;6.68;;
67930;SDS011;63902;52.000;5.954;2024-02-21T02:50:58;14.43;;;7.82;;
67930;SDS011;63902;52.000;5.954;2024-02-21T02:51:58;16.85;;;8.05;;
67930;SDS011;63902;52.000;5.954;2024-02-21T02:52:58;21.80;;;8.40;;
67930;SDS011;63902;52.000;5.954;2024-02-21T02:54:00;23.60;;;8.07;;
67930;SDS011;63902;52.000;5.954;2024-02-21T02:55:02;18.33;;;7.10;;
67930;SDS011;63902;52.000;5.954;2024-02-21T02:56:03;22.50;;;7.07;;
67930;SDS011;63902;52.000;5.954;2024-02-21T02:57:04;16.25;;;7.25;;
67930;SDS011;63902;52.000;5.954;2024-02-21T02:58:04;13.02;;;6.70;;
67930;SDS011;63902;52.000;5.954;2024-02-21T02:59:05;17.48;;;7.65;;
67930;SDS011;63902;52.000;5.954;2024-02-21T03:00:06;24.35;;;8.02;;
67930;SDS011;63902;52.000;5.954;2024-02-21T03:01:07;20.52;;;7.45;;
67930;SDS011;63902;52.000;5.954;2024-02-21T03:02:07;16.45;;;7.78;;
67930;SDS011;63902;52.000;5.954;2024-02-21T03:03:08;21.20;;;8.13;;
67930;SDS011;63902;52.000;5.954;2024-02-21T03:04:08;20.25;;;7.82;;
67930;SDS011;63902;52.000;5.954;2024-02-21T03:05:12;16.00;;;7.20;;
67930;SDS011;63902;52.000;5.954;2024-02-21T03:06:13;19.85;;;8.25;;
67930;SDS011;63902;52.000;5.954;2024-02-21T03:07:14;20.13;;;8.02;;
67930;SDS011;63902;52.000;5.954;2024-02-21T03:08:15;19.27;;;7.65;;
67930;SDS011;63902;52.000;5.954;2024-02-21T03:09:16;17.67;;;7.18;;
67930;SDS011;63902;52.000;5.954;2024-02-21T03:10:17;14.23;;;7.07;;
67930;SDS011;63902;52.000;5.954;2024-02-21T03:11:17;17.40;;;7.47;;
67930;SDS011;63902;52.000;5.954;2024-02-21T03:12:18;18.55;;;7.22;;
67930;SDS011;63902;52.000;5.954;2024-02-21T03:13:18;13.30;;;6.65;;
67930;SDS011;63902;52.000;5.954;2024-02-21T03:14:19;18.75;;;7.68;;
67930;SDS011;63902;52.000;5.954;2024-02-21T03:15:19;23.05;;;7.75;;
67930;SDS011;63902;52.000;5.954;2024-02-21T03:16:20;17.85;;;7.55;;
67930;SDS011;63902;52.000;5.954;2024-02-21T03:17:20;17.63;;;7.40;;
67930;SDS011;63902;52.000;5.954;2024-02-21T03:18:21;15.27;;;7.60;;
67930;SDS011;63902;52.000;5.954;2024-02-21T03:19:21;18.85;;;7.85;;
67930;SDS011;63902;52.000;5.954;2024-02-21T03:20:22;17.10;;;8.02;;
67930;SDS011;63902;52.000;5.954;2024-02-21T03:21:22;18.40;;;7.10;;
67930;SDS011;63902;52.000;5.954;2024-02-21T03:22:23;20.08;;;7.10;;
67930;SDS011;63902;52.000;5.954;2024-02-21T03:23:23;18.58;;;7.32;;
67930;SDS011;63902;52.000;5.954;2024-02-21T03:24:25;16.08;;;7.63;;
67930;SDS011;63902;52.000;5.954;2024-02-21T03:25:26;16.73;;;7.78;;
67930;SDS011;63902;52.000;5.954;2024-02-21T03:26:26;19.33;;;7.78;;
67930;SDS011;63902;52.000;5.954;2024-02-21T03:27:27;16.63;;;6.82;;
67930;SDS011;63902;52.000;5.954;2024-02-21T03:28:27;13.07;;;6.47;;
67930;SDS011;63902;52.000;5.954;2024-02-21T03:29:28;19.90;;;7.35;;
67930;SDS011;63902;52.000;5.954;2024-02-21T03:30:28;19.08;;;7.45;;
67930;SDS011;63902;52.000;5.954;2024-02-21T03:31:29;22.20;;;7.93;;
67930;SDS011;63902;52.000;5.954;2024-02-21T03:32:29;19.98;;;8.02;;
67930;SDS011;63902;52.000;5.954;2024-02-21T03:33:30;19.15;;;7.35;;
67930;SDS011;63902;52.000;5.954;2024-02-21T03:34:30;18.88;;;7.53;;
67930;SDS011;63902;52.000;5.954;2024-02-21T03:35:31;16.25;;;7.70;;
67930;SDS011;63902;52.000;5.954;2024-02-21T03:36:31;16.48;;;7.50;;
67930;SDS011;63902;52.000;5.954;2024-02-21T03:37:31;14.48;;;7.53;;
67930;SDS011;63902;52.000;5.954;2024-02-21T03:38:32;18.08;;;7.90;;
67930;SDS011;63902;52.000;5.954;2024-02-21T03:39:34;19.75;;;7.65;;
67930;SDS011;63902;52.000;5.954;2024-02-21T03:40:34;15.40;;;7.32;;
67930;SDS011;63902;52.000;5.954;2024-02-21T03:41:35;20.48;;;6.90;;
67930;SDS011;63902;52.000;5.954;2024-02-21T03:42:35;13.23;;;6.60;;
67930;SDS011;63902;52.000;5.954;2024-02-21T03:43:37;15.15;;;6.70;;
67930;SDS011;63902;52.000;5.954;2024-02-21T03:44:37;17.23;;;6.80;;
67930;SDS011;63902;52.000;5.954;2024-02-21T03:45:38;17.13;;;7.40;;
67930;SDS011;63902;52.000;5.954;2024-02-21T03:46:38;19.92;;;7.22;;
67930;SDS011;63902;52.000;5.954;2024-02-21T03:47:39;15.88;;;6.28;;
67930;SDS011;63902;52.000;5.954;2024-02-21T03:48:39;18.17;;;6.63;;
67930;SDS011;63902;52.000;5.954;2024-02-21T03:49:40;16.10;;;6.55;;
67930;SDS011;63902;52.000;5.954;2024-02-21T03:50:40;19.67;;;8.15;;
67930;SDS011;63902;52.000;5.954;2024-02-21T03:51:41;17.13;;;6.78;;
67930;SDS011;63902;52.000;5.954;2024-02-21T03:52:41;13.55;;;7.07;;
67930;SDS011;63902;52.000;5.954;2024-02-21T03:53:41;19.88;;;7.82;;
67930;SDS011;63902;52.000;5.954;2024-02-21T03:54:43;21.02;;;7.22;;
67930;SDS011;63902;52.000;5.954;2024-02-21T03:55:44;14.70;;;7.35;;
67930;SDS011;63902;52.000;5.954;2024-02-21T03:56:44;12.90;;;6.80;;
67930;SDS011;63902;52.000;5.954;2024-02-21T03:57:45;15.55;;;6.18;;
67930;SDS011;63902;52.000;5.954;2024-02-21T03:58:45;16.70;;;6.40;;
67930;SDS011;63902;52.000;5.954;2024-02-21T03:59:46;16.90;;;6.75;;
67930;SDS011;63902;52.000;5.954;2024-02-21T04:00:47;10.95;;;6.20;;
67930;SDS011;63902;52.000;5.954;2024-02-21T04:01:51;14.57;;;5.88;;
67930;SDS011;63902;52.000;5.954;2024-02-21T04:02:51;14.38;;;6.28;;
67930;SDS011;63902;52.000;5.954;2024-02-21T04:03:52;19.67;;;6.70;;
67930;SDS011;63902;52.000;5.954;2024-02-21T04:04:52;14.38;;;5.70;;
67930;SDS011;63902;52.000;5.954;2024-02-21T04:05:53;17.05;;;6.85;;
67930;SDS011;63902;52.000;5.954;2024-02-21T04:06:53;15.65;;;6.75;;
67930;SDS011;63902;52.000;5.954;2024-02-21T04:07:54;18.40;;;6.75;;
67930;SDS011;63902;52.000;5.954;2024-02-21T04:08:54;19.30;;;6.45;;
67930;SDS011;63902;52.000;5.954;2024-02-21T04:09:56;15.15;;;5.88;;
67930;SDS011;63902;52.000;5.954;2024-02-21T04:10:56;11.40;;;6.25;;
67930;SDS011;63902;52.000;5.954;2024-02-21T04:11:57;11.45;;;6.43;;
67930;SDS011;63902;52.000;5.954;2024-02-21T04:12:57;16.58;;;5.93;;
67930;SDS011;63902;52.000;5.954;2024-02-21T04:13:58;13.15;;;6.03;;
67930;SDS011;63902;52.000;5.954;2024-02-21T04:14:58;18.73;;;6.05;;
67930;SDS011;63902;52.000;5.954;2024-02-21T04:15:59;16.65;;;6.30;;
67930;SDS011;63902;52.000;5.954;2024-02-21T04:16:59;12.98;;;5.90;;
67930;SDS011;63902;52.000;5.954;2024-02-21T04:18:00;16.27;;;6.15;;
67930;SDS011;63902;52.000;5.954;2024-02-21T04:19:00;12.23;;;5.75;;
67930;SDS011;63902;52.000;5.954;2024-02-21T04:20:02;11.95;;;5.90;;
67930;SDS011;63902;52.000;5.954;2024-02-21T04:21:03;20.08;;;5.88;;
67930;SDS011;63902;52.000;5.954;2024-02-21T04:22:04;16.05;;;5.90;;
67930;SDS011;63902;52.000;5.954;2024-02-21T04:23:04;12.73;;;5.03;;
67930;SDS011;63902;52.000;5.954;2024-02-21T04:24:05;18.42;;;5.50;;
67930;SDS011;63902;52.000;5.954;2024-02-21T04:25:07;15.98;;;5.75;;
67930;SDS011;63902;52.000;5.954;2024-02-21T04:26:08;15.82;;;6.18;;
67930;SDS011;63902;52.000;5.954;2024-02-21T04:27:09;13.85;;;5.45;;
67930;SDS011;63902;52.000;5.954;2024-02-21T04:28:09;11.70;;;5.30;;
67930;SDS011;63902;52.000;5.954;2024-02-21T04:29:10;13.05;;;5.28;;
67930;SDS011;63902;52.000;5.954;2024-02-21T04:30:11;11.07;;;5.10;;
67930;SDS011;63902;52.000;5.954;2024-02-21T04:31:12;11.88;;;5.30;;
67930;SDS011;63902;52.000;5.954;2024-02-21T04:32:12;13.88;;;5.47;;
67930;SDS011;63902;52.000;5.954;2024-02-21T04:33:13;9.25;;;5.32;;
67930;SDS011;63902;52.000;5.954;2024-02-21T04:34:13;12.38;;;4.78;;
67930;SDS011;63902;52.000;5.954;2024-02-21T04:35:14;11.80;;;5.63;;
67930;SDS011;63902;52.000;5.954;2024-02-21T04:36:14;12.93;;;5.78;;
67930;SDS011;63902;52.000;5.954;2024-02-21T04:37:15;12.18;;;4.93;;
67930;SDS011;63902;52.000;5.954;2024-02-21T04:38:15;14.88;;;6.10;;
67930;SDS011;63902;52.000;5.954;2024-02-21T04:39:16;10.10;;;4.65;;
67930;SDS011;63902;52.000;5.954;2024-02-21T04:40:17;9.07;;;4.97;;
67930;SDS011;63902;52.000;5.954;2024-02-21T04:41:18;10.38;;;4.72;;
67930;SDS011;63902;52.000;5.954;2024-02-21T04:42:18;18.42;;;5.05;;
67930;SDS011;63902;52.000;5.954;2024-02-21T04:43:19;13.82;;;5.28;;
67930;SDS011;63902;52.000;5.954;2024-02-21T04:44:19;18.13;;;6.03;;
67930;SDS011;63902;52.000;5.954;2024-02-21T04:45:20;11.18;;;4.70;;
67930;SDS011;63902;52.000;5.954;2024-02-21T04:46:20;12.65;;;5.63;;
67930;SDS011;63902;52.000;5.954;2024-02-21T04:47:21;10.82;;;5.20;;
67930;SDS011;63902;52.000;5.954;2024-02-21T04:48:21;8.85;;;4.45;;
67930;SDS011;63902;52.000;5.954;2024-02-21T04:49:22;12.25;;;5.15;;
67930;SDS011;63902;52.000;5.954;2024-02-21T04:50:22;13.80;;;5.18;;
67930;SDS011;63902;52.000;5.954;2024-02-21T04:51:23;16.20;;;5.47;;
67930;SDS011;63902;52.000;5.954;2024-02-21T04:52:23;13.07;;;5.90;;
67930;SDS011;63902;52.000;5.954;2024-02-21T04:53:24;11.15;;;4.88;;
67930;SDS011;63902;52.000;5.954;2024-02-21T04:54:24;15.77;;;5.13;;
67930;SDS011;63902;52.000;5.954;2024-02-21T04:55:26;9.13;;;4.43;;
67930;SDS011;63902;52.000;5.954;2024-02-21T04:56:27;12.68;;;4.88;;
67930;SDS011;63902;52.000;5.954;2024-02-21T04:57:27;9.52;;;4.22;;
67930;SDS011;63902;52.000;5.954;2024-02-21T04:58:28;7.35;;;3.83;;
67930;SDS011;63902;52.000;5.954;2024-02-21T04:59:28;13.70;;;4.65;;
67930;SDS011;63902;52.000;5.954;2024-02-21T05:00:28;15.77;;;4.97;;
67930;SDS011;63902;52.000;5.954;2024-02-21T05:01:29;14.40;;;4.82;;
67930;SDS011;63902;52.000;5.954;2024-02-21T05:02:29;11.25;;;4.75;;
67930;SDS011;63902;52.000;5.954;2024-02-21T05:03:30;13.80;;;4.30;;
67930;SDS011;63902;52.000;5.954;2024-02-21T05:04:30;13.55;;;5.47;;
67930;SDS011;63902;52.000;5.954;2024-02-21T05:05:31;11.68;;;4.78;;
67930;SDS011;63902;52.000;5.954;2024-02-21T05:06:31;13.48;;;5.60;;
67930;SDS011;63902;52.000;5.954;2024-02-21T05:07:32;10.50;;;4.35;;
67930;SDS011;63902;52.000;5.954;2024-02-21T05:08:32;12.57;;;4.57;;
67930;SDS011;63902;52.000;5.954;2024-02-21T05:09:33;12.90;;;5.07;;
67930;SDS011;63902;52.000;5.954;2024-02-21T05:10:35;15.50;;;5.03;;
67930;SDS011;63902;52.000;5.954;2024-02-21T05:11:35;9.43;;;4.90;;
67930;SDS011;63902;52.000;5.954;2024-02-21T05:12:36;12.48;;;4.55;;
67930;SDS011;63902;52.000;5.954;2024-02-21T05:13:37;16.83;;;5.57;;
67930;SDS011;63902;52.000;5.954;2024-02-21T05:14:37;12.20;;;5.45;;
67930;SDS011;63902;52.000;5.954;2024-02-21T05:15:38;10.95;;;4.75;;
67930;SDS011;63902;52.000;5.954;2024-02-21T05:16:38;11.63;;;5.15;;
67930;SDS011;63902;52.000;5.954;2024-02-21T05:17:39;11.48;;;5.00;;
67930;SDS011;63902;52.000;5.954;2024-02-21T05:18:40;13.13;;;5.00;;
67930;SDS011;63902;52.000;5.954;2024-02-21T05:19:40;9.52;;;4.82;;
67930;SDS011;63902;52.000;5.954;2024-02-21T05:20:41;13.15;;;5.43;;
67930;SDS011;63902;52.000;5.954;2024-02-21T05:21:41;10.88;;;4.90;;
67930;SDS011;63902;52.000;5.954;2024-02-21T05:22:42;10.38;;;4.90;;
67930;SDS011;63902;52.000;5.954;2024-02-21T05:23:43;14.25;;;5.13;;
67930;SDS011;63902;52.000;5.954;2024-02-21T05:24:43;13.57;;;4.97;;
67930;SDS011;63902;52.000;5.954;2024-02-21T05:25:45;13.55;;;4.78;;
67930;SDS011;63902;52.000;5.954;2024-02-21T05:26:45;12.43;;;5.28;;
67930;SDS011;63902;52.000;5.954;2024-02-21T05:27:46;12.63;;;5.68;;
67930;SDS011;63902;52.000;5.954;2024-02-21T05:28:46;14.25;;;5.28;;
67930;SDS011;63902;52.000;5.954;2024-02-21T05:29:47;10.32;;;5.10;;
67930;SDS011;63902;52.000;5.954;2024-02-21T05:30:47;9.43;;;5.50;;
67930;SDS011;63902;52.000;5.954;2024-02-21T05:31:56;10.95;;;5.47;;
67930;SDS011;63902;52.000;5.954;2024-02-21T05:32:57;13.02;;;5.32;;
67930;SDS011;63902;52.000;5.954;2024-02-21T05:33:58;11.95;;;5.30;;
67930;SDS011;63902;52.000;5.954;2024-02-21T05:34:58;17.20;;;5.72;;
67930;SDS011;63902;52.000;5.954;2024-02-21T05:35:59;14.50;;;5.85;;
67930;SDS011;63902;52.000;5.954;2024-02-21T05:36:59;11.80;;;5.28;;
67930;SDS011;63902;52.000;5.954;2024-02-21T05:38:00;11.38;;;5.72;;
67930;SDS011;63902;52.000;5.954;2024-02-21T05:39:00;12.60;;;6.47;;
67930;SDS011;63902;52.000;5.954;2024-02-21T05:40:01;12.23;;;6.20;;
67930;SDS011;63902;52.000;5.954;2024-02-21T05:41:03;10.70;;;5.40;;
67930;SDS011;63902;52.000;5.954;2024-02-21T05:42:04;8.55;;;5.38;;
67930;SDS011;63902;52.000;5.954;2024-02-21T05:43:04;11.27;;;5.63;;
67930;SDS011;63902;52.000;5.954;2024-02-21T05:44:05;10.10;;;5.25;;
67930;SDS011;63902;52.000;5.954;2024-02-21T05:45:05;12.55;;;6.20;;
67930;SDS011;63902;52.000;5.954;2024-02-21T05:46:06;12.45;;;6.47;;
67930;SDS011;63902;52.000;5.954;2024-02-21T05:47:07;15.25;;;6.47;;
67930;SDS011;63902;52.000;5.954;2024-02-21T05:48:07;10.13;;;6.38;;
67930;SDS011;63902;52.000;5.954;2024-02-21T05:49:08;13.95;;;5.75;;
67930;SDS011;63902;52.000;5.954;2024-02-21T05:50:08;14.88;;;7.18;;
67930;SDS011;63902;52.000;5.954;2024-02-21T05:51:09;18.17;;;6.88;;
67930;SDS011;63902;52.000;5.954;2024-02-21T05:52:10;11.75;;;5.95;;
67930;SDS011;63902;52.000;5.954;2024-02-21T05:53:10;11.38;;;6.03;;
67930;SDS011;63902;52.000;5.954;2024-02-21T05:54:11;13.60;;;6.15;;
67930;SDS011;63902;52.000;5.954;2024-02-21T05:55:11;12.45;;;6.65;;
67930;SDS011;63902;52.000;5.954;2024-02-21T05:56:13;12.27;;;6.45;;
67930;SDS011;63902;52.000;5.954;2024-02-21T05:57:14;15.35;;;6.07;;
67930;SDS011;63902;52.000;5.954;2024-02-21T05:58:14;13.95;;;6.43;;
67930;SDS011;63902;52.000;5.954;2024-02-21T05:59:15;12.70;;;5.88;;
67930;SDS011;63902;52.000;5.954;2024-02-21T06:00:15;14.15;;;6.60;;
67930;SDS011;63902;52.000;5.954;2024-02-21T06:01:16;11.73;;;5.70;;